sensor_id;sensor_type;location;lat;lon;timestamp;temperature;humidity
7212;DHT22;3647;48.792;9.802;2023-04-01T05:18:37;8.40;99.90
7212;DHT22;3647;48.792;9.802;2023-04-01T05:21:06;8.30;99.90
7212;DHT22;3647;48.792;9.802;2023-04-01T05:23:33;8.40;99.90
7212;DHT22;3647;48.792;9.802;2023-04-01T05:26:03;8.50;99.90
7212;DHT22;3647;48.792;9.802;2023-04-01T05:28:30;8.70;99.90
7212;DHT22;3647;48.792;9.802;2023-04-01T05:30:58;8.50;99.90
7212;DHT22;3647;48.792;9.802;2023-04-01T05:33:25;9.70;99.90
7212;DHT22;3647;48.792;9.802;2023-04-01T05:35:53;8.80;99.90
7212;DHT22;3647;48.792;9.802;2023-04-01T05:38:21;8.70;99.90
7212;DHT22;3647;48.792;9.802;2023-04-01T05:40:47;8.70;99.90
7212;DHT22;3647;48.792;9.802;2023-04-01T05:43:14;8.80;99.90
7212;DHT22;3647;48.792;9.802;2023-04-01T05:45:41;8.80;99.90
7212;DHT22;3647;48.792;9.802;2023-04-01T05:48:08;8.80;99.90
7212;DHT22;3647;48.792;9.802;2023-04-01T05:50:35;8.80;99.90
7212;DHT22;3647;48.792;9.802;2023-04-01T05:53:03;9.70;99.90
7212;DHT22;3647;48.792;9.802;2023-04-01T05:55:29;8.90;99.90
7212;DHT22;3647;48.792;9.802;2023-04-01T05:57:56;9.00;99.90
7212;DHT22;3647;48.792;9.802;2023-04-01T06:00:23;10.10;99.90
7212;DHT22;3647;48.792;9.802;2023-04-01T06:02:50;9.00;99.90
7212;DHT22;3647;48.792;9.802;2023-04-01T06:05:19;9.50;99.90
7212;DHT22;3647;48.792;9.802;2023-04-01T06:07:47;9.10;99.90
7212;DHT22;3647;48.792;9.802;2023-04-01T06:10:17;9.10;99.90
7212;DHT22;3647;48.792;9.802;2023-04-01T06:12:57;9.10;99.90
7212;DHT22;3647;48.792;9.802;2023-04-01T06:15:34;9.20;99.90
7212;DHT22;3647;48.792;9.802;2023-04-01T06:21:07;9.40;99.90
7212;DHT22;3647;48.792;9.802;2023-04-01T06:23:49;9.40;99.90
7212;DHT22;3647;48.792;9.802;2023-04-01T06:26:30;9.50;99.90
7212;DHT22;3647;48.792;9.802;2023-04-01T06:32:31;9.50;99.90
7212;DHT22;3647;48.792;9.802;2023-04-01T06:35:17;9.60;99.90
7212;DHT22;3647;48.792;9.802;2023-04-01T06:38:01;9.50;99.90
7212;DHT22;3647;48.792;9.802;2023-04-01T06:40:49;9.60;99.90
7212;DHT22;3647;48.792;9.802;2023-04-01T06:43:29;9.60;99.90
7212;DHT22;3647;48.792;9.802;2023-04-01T06:46:04;9.60;99.90
7212;DHT22;3647;48.792;9.802;2023-04-01T06:48:44;9.60;99.90
7212;DHT22;3647;48.792;9.802;2023-04-01T06:51:24;9.70;99.90
7212;DHT22;3647;48.792;9.802;2023-04-01T06:53:56;9.60;99.90
7212;DHT22;3647;48.792;9.802;2023-04-01T06:56:25;9.70;99.90
7212;DHT22;3647;48.792;9.802;2023-04-01T06:58:58;9.80;99.90
7212;DHT22;3647;48.792;9.802;2023-04-01T07:01:29;9.70;99.90
7212;DHT22;3647;48.792;9.802;2023-04-01T07:04:00;9.70;99.90
7212;DHT22;3647;48.792;9.802;2023-04-01T07:06:31;9.70;99.90
7212;DHT22;3647;48.792;9.802;2023-04-01T07:09:00;9.80;99.90
7212;DHT22;3647;48.792;9.802;2023-04-01T07:11:31;9.80;99.90
7212;DHT22;3647;48.792;9.802;2023-04-01T07:14:03;9.80;99.90
7212;DHT22;3647;48.792;9.802;2023-04-01T07:16:36;9.90;99.90
7212;DHT22;3647;48.792;9.802;2023-04-01T07:19:08;9.90;99.90
7212;DHT22;3647;48.792;9.802;2023-04-01T07:21:43;9.90;99.90
7212;DHT22;3647;48.792;9.802;2023-04-01T07:24:17;10.00;99.90
7212;DHT22;3647;48.792;9.802;2023-04-01T07:26:55;10.00;99.90
7212;DHT22;3647;48.792;9.802;2023-04-01T07:29:25;10.00;99.90
7212;DHT22;3647;48.792;9.802;2023-04-01T07:32:07;10.10;99.90
7212;DHT22;3647;48.792;9.802;2023-04-01T07:34:40;10.20;99.90
7212;DHT22;3647;48.792;9.802;2023-04-01T07:37:13;10.20;99.90
7212;DHT22;3647;48.792;9.802;2023-04-01T07:39:48;10.20;99.90
7212;DHT22;3647;48.792;9.802;2023-04-01T07:42:26;10.20;99.90
7212;DHT22;3647;48.792;9.802;2023-04-01T07:45:07;10.20;99.90
7212;DHT22;3647;48.792;9.802;2023-04-01T07:47:50;10.20;99.90
7212;DHT22;3647;48.792;9.802;2023-04-01T07:50:26;10.30;99.90
7212;DHT22;3647;48.792;9.802;2023-04-01T07:53:01;10.40;99.90
7212;DHT22;3647;48.792;9.802;2023-04-01T07:55:34;10.40;99.90
7212;DHT22;3647;48.792;9.802;2023-04-01T07:58:10;10.40;99.90
7212;DHT22;3647;48.792;9.802;2023-04-01T08:00:48;10.50;99.90
7212;DHT22;3647;48.792;9.802;2023-04-01T08:03:33;10.50;99.90
7212;DHT22;3647;48.792;9.802;2023-04-01T08:06:06;10.60;99.90
7212;DHT22;3647;48.792;9.802;2023-04-01T08:08:46;10.70;99.90
7212;DHT22;3647;48.792;9.802;2023-04-01T08:11:25;10.70;99.90
7212;DHT22;3647;48.792;9.802;2023-04-01T08:14:01;10.80;99.90
7212;DHT22;3647;48.792;9.802;2023-04-01T08:16:37;11.00;99.90
7212;DHT22;3647;48.792;9.802;2023-04-01T08:19:15;11.40;99.90
7212;DHT22;3647;48.792;9.802;2023-04-01T08:21:47;11.50;99.90
7212;DHT22;3647;48.792;9.802;2023-04-01T08:24:19;11.60;99.90
7212;DHT22;3647;48.792;9.802;2023-04-01T08:26:51;11.60;99.90
7212;DHT22;3647;48.792;9.802;2023-04-01T08:29:22;11.30;99.90
7212;DHT22;3647;48.792;9.802;2023-04-01T08:31:55;11.20;99.90
7212;DHT22;3647;48.792;9.802;2023-04-01T08:34:26;11.00;99.90
7212;DHT22;3647;48.792;9.802;2023-04-01T08:37:00;10.90;99.90
7212;DHT22;3647;48.792;9.802;2023-04-01T08:39:31;10.80;99.90
7212;DHT22;3647;48.792;9.802;2023-04-01T08:42:31;10.80;99.90
7212;DHT22;3647;48.792;9.802;2023-04-01T08:45:26;10.70;99.90
7212;DHT22;3647;48.792;9.802;2023-04-01T08:48:17;10.70;99.90
7212;DHT22;3647;48.792;9.802;2023-04-01T08:51:20;10.70;99.90
7212;DHT22;3647;48.792;9.802;2023-04-01T08:54:13;10.60;99.90
7212;DHT22;3647;48.792;9.802;2023-04-01T08:56:47;10.70;99.90
7212;DHT22;3647;48.792;9.802;2023-04-01T08:59:40;10.50;99.90
7212;DHT22;3647;48.792;9.802;2023-04-01T09:02:43;10.50;99.90
7212;DHT22;3647;48.792;9.802;2023-04-01T09:05:39;10.50;99.90
7212;DHT22;3647;48.792;9.802;2023-04-01T09:08:24;10.50;99.90
7212;DHT22;3647;48.792;9.802;2023-04-01T09:11:05;10.50;99.90
7212;DHT22;3647;48.792;9.802;2023-04-01T09:14:07;10.60;99.90
7212;DHT22;3647;48.792;9.802;2023-04-01T09:17:01;10.60;99.90
7212;DHT22;3647;48.792;9.802;2023-04-01T09:19:47;10.60;99.90
7212;DHT22;3647;48.792;9.802;2023-04-01T09:22:34;10.60;99.90
7212;DHT22;3647;48.792;9.802;2023-04-01T09:25:21;10.60;99.90
7212;DHT22;3647;48.792;9.802;2023-04-01T09:27:55;10.60;99.90
7212;DHT22;3647;48.792;9.802;2023-04-01T09:36:43;10.40;99.90
7212;DHT22;3647;48.792;9.802;2023-04-01T09:39:32;10.20;99.90
7212;DHT22;3647;48.792;9.802;2023-04-01T09:42:37;10.20;99.90
7212;DHT22;3647;48.792;9.802;2023-04-01T09:45:15;10.20;99.90
7212;DHT22;3647;48.792;9.802;2023-04-01T09:47:54;10.20;99.90
7212;DHT22;3647;48.792;9.802;2023-04-01T09:50:43;10.20;99.90
7212;DHT22;3647;48.792;9.802;2023-04-01T09:59:31;10.30;99.90
7212;DHT22;3647;48.792;9.802;2023-04-01T10:02:29;10.30;99.90
7212;DHT22;3647;48.792;9.802;2023-04-01T10:11:20;10.40;99.90
7212;DHT22;3647;48.792;9.802;2023-04-01T10:17:08;10.50;99.90
7212;DHT22;3647;48.792;9.802;2023-04-01T10:23:07;10.60;99.90
7212;DHT22;3647;48.792;9.802;2023-04-01T10:32:17;10.50;99.90
7212;DHT22;3647;48.792;9.802;2023-04-01T10:41:38;10.50;99.90
7212;DHT22;3647;48.792;9.802;2023-04-01T10:44:38;10.50;99.90
7212;DHT22;3647;48.792;9.802;2023-04-01T10:50:24;10.50;99.90
7212;DHT22;3647;48.792;9.802;2023-04-01T10:53:28;10.60;99.90
7212;DHT22;3647;48.792;9.802;2023-04-01T10:56:29;10.60;99.90
7212;DHT22;3647;48.792;9.802;2023-04-01T10:59:37;10.50;99.90
7212;DHT22;3647;48.792;9.802;2023-04-01T11:02:45;10.50;99.90
7212;DHT22;3647;48.792;9.802;2023-04-01T11:08:48;10.50;99.90
7212;DHT22;3647;48.792;9.802;2023-04-01T11:14:44;10.70;99.90
7212;DHT22;3647;48.792;9.802;2023-04-01T11:17:33;10.70;99.90
7212;DHT22;3647;48.792;9.802;2023-04-01T11:20:28;10.80;99.90
7212;DHT22;3647;48.792;9.802;2023-04-01T11:23:22;10.70;99.90
7212;DHT22;3647;48.792;9.802;2023-04-01T11:26:02;10.50;99.90
7212;DHT22;3647;48.792;9.802;2023-04-01T11:28:53;10.50;99.90
7212;DHT22;3647;48.792;9.802;2023-04-01T11:31:44;10.50;99.90
7212;DHT22;3647;48.792;9.802;2023-04-01T11:34:38;10.50;99.90
7212;DHT22;3647;48.792;9.802;2023-04-01T11:37:17;10.50;99.90
7212;DHT22;3647;48.792;9.802;2023-04-01T11:39:59;10.50;99.90
7212;DHT22;3647;48.792;9.802;2023-04-01T11:42:40;10.40;99.90
7212;DHT22;3647;48.792;9.802;2023-04-01T11:45:19;10.70;99.90
7212;DHT22;3647;48.792;9.802;2023-04-01T11:48:03;10.40;99.90
7212;DHT22;3647;48.792;9.802;2023-04-01T11:50:44;10.40;99.90
7212;DHT22;3647;48.792;9.802;2023-04-01T11:53:26;10.40;99.90
7212;DHT22;3647;48.792;9.802;2023-04-01T11:56:03;10.50;99.90
7212;DHT22;3647;48.792;9.802;2023-04-01T11:58:59;10.60;99.90
7212;DHT22;3647;48.792;9.802;2023-04-01T12:07:34;10.80;99.90
7212;DHT22;3647;48.792;9.802;2023-04-01T12:10:15;10.90;99.90
7212;DHT22;3647;48.792;9.802;2023-04-01T12:12:51;10.80;99.90
7212;DHT22;3647;48.792;9.802;2023-04-01T12:15:28;12.00;99.90
7212;DHT22;3647;48.792;9.802;2023-04-01T12:18:02;10.90;99.90
7212;DHT22;3647;48.792;9.802;2023-04-01T12:20:45;11.00;99.90
7212;DHT22;3647;48.792;9.802;2023-04-01T12:23:37;11.00;99.90
7212;DHT22;3647;48.792;9.802;2023-04-01T12:26:23;11.10;99.90
7212;DHT22;3647;48.792;9.802;2023-04-01T12:29:12;11.10;99.90
7212;DHT22;3647;48.792;9.802;2023-04-01T12:31:47;11.10;99.90
7212;DHT22;3647;48.792;9.802;2023-04-01T12:37:36;11.10;99.90
7212;DHT22;3647;48.792;9.802;2023-04-01T12:40:24;11.30;99.90
7212;DHT22;3647;48.792;9.802;2023-04-01T12:43:05;11.20;99.90
7212;DHT22;3647;48.792;9.802;2023-04-01T12:45:45;11.20;99.90
7212;DHT22;3647;48.792;9.802;2023-04-01T12:48:27;11.20;99.90
7212;DHT22;3647;48.792;9.802;2023-04-01T12:54:46;11.40;99.90
7212;DHT22;3647;48.792;9.802;2023-04-01T12:57:27;11.30;99.90
7212;DHT22;3647;48.792;9.802;2023-04-01T13:00:12;11.30;99.90
7212;DHT22;3647;48.792;9.802;2023-04-01T13:02:58;11.40;99.90
7212;DHT22;3647;48.792;9.802;2023-04-01T13:05:50;11.30;99.90
7212;DHT22;3647;48.792;9.802;2023-04-01T13:08:34;11.30;99.90
7212;DHT22;3647;48.792;9.802;2023-04-01T13:11:16;11.30;99.90
7212;DHT22;3647;48.792;9.802;2023-04-01T13:14:13;11.40;99.90
7212;DHT22;3647;48.792;9.802;2023-04-01T13:16:48;11.30;99.90
7212;DHT22;3647;48.792;9.802;2023-04-01T13:19:25;11.30;99.90
7212;DHT22;3647;48.792;9.802;2023-04-01T13:22:04;11.20;99.90
7212;DHT22;3647;48.792;9.802;2023-04-01T13:24:46;11.20;99.90
7212;DHT22;3647;48.792;9.802;2023-04-01T13:27:21;11.20;99.90
7212;DHT22;3647;48.792;9.802;2023-04-01T13:30:03;11.30;99.90
7212;DHT22;3647;48.792;9.802;2023-04-01T13:32:36;11.20;99.90
7212;DHT22;3647;48.792;9.802;2023-04-01T13:35:21;11.20;99.90
7212;DHT22;3647;48.792;9.802;2023-04-01T13:37:59;11.40;99.90
7212;DHT22;3647;48.792;9.802;2023-04-01T13:40:48;11.50;99.90
7212;DHT22;3647;48.792;9.802;2023-04-01T13:43:21;11.30;99.90
7212;DHT22;3647;48.792;9.802;2023-04-01T13:49:06;11.30;99.90
7212;DHT22;3647;48.792;9.802;2023-04-01T13:52:04;11.20;99.90
7212;DHT22;3647;48.792;9.802;2023-04-01T13:55:05;11.20;99.90
7212;DHT22;3647;48.792;9.802;2023-04-01T13:57:47;11.10;99.90
7212;DHT22;3647;48.792;9.802;2023-04-01T14:00:32;11.10;99.90
7212;DHT22;3647;48.792;9.802;2023-04-01T14:03:27;11.10;99.90
7212;DHT22;3647;48.792;9.802;2023-04-01T14:06:17;11.00;99.90
7212;DHT22;3647;48.792;9.802;2023-04-01T14:14:18;11.00;99.90
7212;DHT22;3647;48.792;9.802;2023-04-01T14:22:29;10.80;99.90
7212;DHT22;3647;48.792;9.802;2023-04-01T14:25:29;10.80;99.90
7212;DHT22;3647;48.792;9.802;2023-04-01T14:28:07;10.70;99.90
7212;DHT22;3647;48.792;9.802;2023-04-01T14:30:47;10.80;99.90
7212;DHT22;3647;48.792;9.802;2023-04-01T14:33:37;10.80;99.90
7212;DHT22;3647;48.792;9.802;2023-04-01T14:39:12;10.90;99.90
7212;DHT22;3647;48.792;9.802;2023-04-01T14:41:47;11.00;99.90
7212;DHT22;3647;48.792;9.802;2023-04-01T14:44:45;11.00;99.90
7212;DHT22;3647;48.792;9.802;2023-04-01T14:47:43;11.10;99.90
7212;DHT22;3647;48.792;9.802;2023-04-01T14:50:14;11.20;99.90
7212;DHT22;3647;48.792;9.802;2023-04-01T14:52:44;11.20;99.90
7212;DHT22;3647;48.792;9.802;2023-04-01T14:55:28;12.70;99.90
7212;DHT22;3647;48.792;9.802;2023-04-01T14:58:04;10.90;99.90
7212;DHT22;3647;48.792;9.802;2023-04-01T15:00:47;10.90;99.90
7212;DHT22;3647;48.792;9.802;2023-04-01T15:03:20;10.80;99.90
7212;DHT22;3647;48.792;9.802;2023-04-01T15:05:52;10.70;99.90
7212;DHT22;3647;48.792;9.802;2023-04-01T15:08:23;10.70;99.90
7212;DHT22;3647;48.792;9.802;2023-04-01T15:11:15;10.60;99.90
7212;DHT22;3647;48.792;9.802;2023-04-01T15:14:30;10.60;99.90
7212;DHT22;3647;48.792;9.802;2023-04-01T15:17:20;10.60;99.90
7212;DHT22;3647;48.792;9.802;2023-04-01T15:20:07;10.50;99.90
7212;DHT22;3647;48.792;9.802;2023-04-01T15:23:00;10.60;99.90
7212;DHT22;3647;48.792;9.802;2023-04-01T15:25:43;10.60;99.90
7212;DHT22;3647;48.792;9.802;2023-04-01T15:28:23;10.90;99.90
7212;DHT22;3647;48.792;9.802;2023-04-01T15:30:55;10.60;99.90
7212;DHT22;3647;48.792;9.802;2023-04-01T15:33:36;10.60;99.90
7212;DHT22;3647;48.792;9.802;2023-04-01T15:36:16;10.60;99.90
7212;DHT22;3647;48.792;9.802;2023-04-01T15:38:49;12.60;99.90
7212;DHT22;3647;48.792;9.802;2023-04-01T15:41:24;10.60;99.90
7212;DHT22;3647;48.792;9.802;2023-04-01T15:43:55;10.70;99.90
7212;DHT22;3647;48.792;9.802;2023-04-01T15:46:43;10.60;99.90
7212;DHT22;3647;48.792;9.802;2023-04-01T15:49:16;10.50;99.90
7212;DHT22;3647;48.792;9.802;2023-04-01T15:51:58;10.60;99.90
7212;DHT22;3647;48.792;9.802;2023-04-01T15:54:56;10.50;99.90
7212;DHT22;3647;48.792;9.802;2023-04-01T15:57:32;10.50;99.90
7212;DHT22;3647;48.792;9.802;2023-04-01T16:00:23;10.50;99.90
7212;DHT22;3647;48.792;9.802;2023-04-01T16:03:10;12.30;99.90
7212;DHT22;3647;48.792;9.802;2023-04-01T16:05:49;10.40;99.90
7212;DHT22;3647;48.792;9.802;2023-04-01T16:08:34;10.30;99.90
7212;DHT22;3647;48.792;9.802;2023-04-01T16:11:15;10.30;99.90
7212;DHT22;3647;48.792;9.802;2023-04-01T16:13:51;10.30;99.90
7212;DHT22;3647;48.792;9.802;2023-04-01T16:16:31;10.40;99.90
7212;DHT22;3647;48.792;9.802;2023-04-01T16:19:28;10.30;99.90
7212;DHT22;3647;48.792;9.802;2023-04-01T16:22:01;10.30;99.90
7212;DHT22;3647;48.792;9.802;2023-04-01T16:24:34;10.20;99.90
7212;DHT22;3647;48.792;9.802;2023-04-01T16:27:06;11.80;99.90
7212;DHT22;3647;48.792;9.802;2023-04-01T16:29:40;11.40;99.90
7212;DHT22;3647;48.792;9.802;2023-04-01T16:32:22;11.90;99.90
7212;DHT22;3647;48.792;9.802;2023-04-01T16:35:01;10.10;99.90
7212;DHT22;3647;48.792;9.802;2023-04-01T16:37:36;10.10;99.90
7212;DHT22;3647;48.792;9.802;2023-04-01T16:40:15;11.90;99.90
7212;DHT22;3647;48.792;9.802;2023-04-01T16:42:48;10.20;99.90
7212;DHT22;3647;48.792;9.802;2023-04-01T16:45:24;10.20;99.90
7212;DHT22;3647;48.792;9.802;2023-04-01T16:47:57;10.10;99.90
7212;DHT22;3647;48.792;9.802;2023-04-01T16:50:28;10.00;99.90
7212;DHT22;3647;48.792;9.802;2023-04-01T16:53:02;10.10;99.90
7212;DHT22;3647;48.792;9.802;2023-04-01T16:55:45;10.00;99.90
7212;DHT22;3647;48.792;9.802;2023-04-01T16:58:20;11.70;99.90
7212;DHT22;3647;48.792;9.802;2023-04-01T17:00:51;10.00;99.90
7212;DHT22;3647;48.792;9.802;2023-04-01T17:03:27;9.90;99.90
7212;DHT22;3647;48.792;9.802;2023-04-01T17:06:06;10.00;99.90
7212;DHT22;3647;48.792;9.802;2023-04-01T17:09:01;11.30;99.90
7212;DHT22;3647;48.792;9.802;2023-04-01T17:11:31;9.90;99.90
7212;DHT22;3647;48.792;9.802;2023-04-01T17:14:10;9.90;99.90
7212;DHT22;3647;48.792;9.802;2023-04-01T17:16:58;10.20;99.90
7212;DHT22;3647;48.792;9.802;2023-04-01T17:19:49;9.90;99.90
7212;DHT22;3647;48.792;9.802;2023-04-01T17:22:33;9.90;99.90
7212;DHT22;3647;48.792;9.802;2023-04-01T17:25:16;9.90;99.90
7212;DHT22;3647;48.792;9.802;2023-04-01T17:27:50;9.80;99.90
7212;DHT22;3647;48.792;9.802;2023-04-01T17:30:30;9.80;99.90
7212;DHT22;3647;48.792;9.802;2023-04-01T17:35:36;9.80;99.90
7212;DHT22;3647;48.792;9.802;2023-04-01T17:38:13;9.80;99.90
7212;DHT22;3647;48.792;9.802;2023-04-01T17:40:53;9.80;99.90
7212;DHT22;3647;48.792;9.802;2023-04-01T17:43:28;10.50;99.90
7212;DHT22;3647;48.792;9.802;2023-04-01T17:46:05;9.80;99.90
7212;DHT22;3647;48.792;9.802;2023-04-01T17:48:42;9.70;99.90
7212;DHT22;3647;48.792;9.802;2023-04-01T17:51:23;9.70;99.90
7212;DHT22;3647;48.792;9.802;2023-04-01T17:53:56;9.70;99.90
7212;DHT22;3647;48.792;9.802;2023-04-01T17:56:36;9.60;99.90
7212;DHT22;3647;48.792;9.802;2023-04-01T17:59:13;9.60;99.90
7212;DHT22;3647;48.792;9.802;2023-04-01T18:01:51;9.60;99.90
7212;DHT22;3647;48.792;9.802;2023-04-01T18:04:47;9.60;99.90
7212;DHT22;3647;48.792;9.802;2023-04-01T18:07:30;9.60;99.90
7212;DHT22;3647;48.792;9.802;2023-04-01T18:10:14;9.60;99.90
7212;DHT22;3647;48.792;9.802;2023-04-01T18:12:59;9.60;99.90
7212;DHT22;3647;48.792;9.802;2023-04-01T18:15:33;9.60;99.90
7212;DHT22;3647;48.792;9.802;2023-04-01T18:18:25;9.60;99.90
7212;DHT22;3647;48.792;9.802;2023-04-01T18:21:05;9.60;99.90
7212;DHT22;3647;48.792;9.802;2023-04-01T18:23:41;9.60;99.90
7212;DHT22;3647;48.792;9.802;2023-04-01T18:26:13;9.50;99.90
7212;DHT22;3647;48.792;9.802;2023-04-01T18:28:44;9.50;99.90
7212;DHT22;3647;48.792;9.802;2023-04-01T18:31:17;9.50;99.90
7212;DHT22;3647;48.792;9.802;2023-04-01T18:33:50;9.50;99.90
7212;DHT22;3647;48.792;9.802;2023-04-01T18:36:36;9.50;99.90
7212;DHT22;3647;48.792;9.802;2023-04-01T18:39:10;9.60;99.90
7212;DHT22;3647;48.792;9.802;2023-04-01T18:41:47;9.60;99.90
7212;DHT22;3647;48.792;9.802;2023-04-01T18:44:25;10.10;99.90
7212;DHT22;3647;48.792;9.802;2023-04-01T18:47:03;9.50;99.90
7212;DHT22;3647;48.792;9.802;2023-04-01T18:49:41;9.90;99.90
7212;DHT22;3647;48.792;9.802;2023-04-01T18:52:16;9.50;99.90
7212;DHT22;3647;48.792;9.802;2023-04-01T18:55:15;9.50;99.90
7212;DHT22;3647;48.792;9.802;2023-04-01T18:57:42;9.50;99.90
7212;DHT22;3647;48.792;9.802;2023-04-01T19:00:18;9.40;99.90
7212;DHT22;3647;48.792;9.802;2023-04-01T19:02:52;9.50;99.90
7212;DHT22;3647;48.792;9.802;2023-04-01T19:05:29;9.40;99.90
7212;DHT22;3647;48.792;9.802;2023-04-01T19:08:14;9.40;99.90
7212;DHT22;3647;48.792;9.802;2023-04-01T19:10:48;9.40;99.90
7212;DHT22;3647;48.792;9.802;2023-04-01T19:13:24;9.30;99.90
7212;DHT22;3647;48.792;9.802;2023-04-01T19:15:57;9.30;99.90
7212;DHT22;3647;48.792;9.802;2023-04-01T19:18:45;9.20;99.90
7212;DHT22;3647;48.792;9.802;2023-04-01T19:21:18;9.20;99.90
7212;DHT22;3647;48.792;9.802;2023-04-01T19:24:18;9.20;99.90
7212;DHT22;3647;48.792;9.802;2023-04-01T19:26:55;9.10;99.90
7212;DHT22;3647;48.792;9.802;2023-04-01T19:29:33;9.10;99.90
7212;DHT22;3647;48.792;9.802;2023-04-01T19:32:10;9.00;99.90
7212;DHT22;3647;48.792;9.802;2023-04-01T19:34:50;9.50;99.90
7212;DHT22;3647;48.792;9.802;2023-04-01T19:37:28;8.90;99.90
7212;DHT22;3647;48.792;9.802;2023-04-01T19:40:06;8.90;99.90
7212;DHT22;3647;48.792;9.802;2023-04-01T19:42:45;8.90;99.90
7212;DHT22;3647;48.792;9.802;2023-04-01T19:45:26;8.90;99.90
7212;DHT22;3647;48.792;9.802;2023-04-01T19:48:00;8.90;99.90
7212;DHT22;3647;48.792;9.802;2023-04-01T19:50:31;8.90;99.90
7212;DHT22;3647;48.792;9.802;2023-04-01T19:53:08;8.90;99.90
7212;DHT22;3647;48.792;9.802;2023-04-01T19:55:42;8.90;99.90
7212;DHT22;3647;48.792;9.802;2023-04-01T19:58:18;8.90;99.90
7212;DHT22;3647;48.792;9.802;2023-04-01T20:00:50;8.90;99.90
7212;DHT22;3647;48.792;9.802;2023-04-01T20:03:30;8.80;99.90
7212;DHT22;3647;48.792;9.802;2023-04-01T20:06:05;8.70;99.90
7212;DHT22;3647;48.792;9.802;2023-04-01T20:08:38;8.70;99.90
7212;DHT22;3647;48.792;9.802;2023-04-01T20:11:14;9.40;99.90
7212;DHT22;3647;48.792;9.802;2023-04-01T20:13:56;8.60;99.90
7212;DHT22;3647;48.792;9.802;2023-04-01T20:16:46;8.50;99.90
7212;DHT22;3647;48.792;9.802;2023-04-01T20:19:24;8.40;99.90
7212;DHT22;3647;48.792;9.802;2023-04-01T20:21:57;8.50;99.90
7212;DHT22;3647;48.792;9.802;2023-04-01T20:24:29;8.50;99.90
7212;DHT22;3647;48.792;9.802;2023-04-01T20:27:03;8.50;99.90
7212;DHT22;3647;48.792;9.802;2023-04-01T20:29:47;8.80;99.90
7212;DHT22;3647;48.792;9.802;2023-04-01T20:35:30;8.50;99.90
7212;DHT22;3647;48.792;9.802;2023-04-01T20:38:19;8.50;99.90
7212;DHT22;3647;48.792;9.802;2023-04-01T20:40:51;8.50;99.90
7212;DHT22;3647;48.792;9.802;2023-04-01T20:43:42;8.50;99.90
7212;DHT22;3647;48.792;9.802;2023-04-01T20:46:19;8.60;99.90
7212;DHT22;3647;48.792;9.802;2023-04-01T20:49:14;8.60;99.90
7212;DHT22;3647;48.792;9.802;2023-04-01T20:51:52;8.60;99.90
7212;DHT22;3647;48.792;9.802;2023-04-01T20:54:33;8.60;99.90
7212;DHT22;3647;48.792;9.802;2023-04-01T20:57:06;8.60;99.90
7212;DHT22;3647;48.792;9.802;2023-04-01T21:02:42;8.60;99.90
7212;DHT22;3647;48.792;9.802;2023-04-01T21:08:24;8.60;99.90
7212;DHT22;3647;48.792;9.802;2023-04-01T21:11:01;8.60;99.90
7212;DHT22;3647;48.792;9.802;2023-04-01T21:13:43;8.70;99.90
7212;DHT22;3647;48.792;9.802;2023-04-01T21:16:22;8.50;99.90
7212;DHT22;3647;48.792;9.802;2023-04-01T21:19:06;9.00;99.90
7212;DHT22;3647;48.792;9.802;2023-04-01T21:21:50;8.50;99.90
